createdAt,value
2022-08-31T00:03:36.836Z,101060.58
2022-08-31T00:08:42.730Z,101058.14
2022-08-31T00:13:48.819Z,101063.05
2022-08-31T00:18:54.743Z,101065.12
2022-08-31T00:24:03.381Z,101061.84
2022-08-31T00:29:09.853Z,101060.98
2022-08-31T00:34:15.905Z,101065.39
2022-08-31T00:39:22.370Z,101070.57
2022-08-31T00:44:28.106Z,101071.86
2022-08-31T00:49:36.030Z,101076.62
2022-08-31T00:54:45.966Z,101075.52
2022-08-31T00:59:52.484Z,101076.17
2022-08-31T01:04:58.297Z,101077.99
2022-08-31T01:10:05.859Z,101079.02
2022-08-31T01:15:14.822Z,101076.80
2022-08-31T01:20:25.800Z,101076.22
2022-08-31T01:25:33.781Z,101080.98
2022-08-31T01:30:41.438Z,101076.84
2022-08-31T01:35:48.666Z,101075.85
2022-08-31T01:40:58.171Z,101074.23
2022-08-31T01:46:05.690Z,101074.73
2022-08-31T01:51:18.730Z,101073.48
2022-08-31T01:56:26.589Z,101074.02
2022-08-31T02:01:35.524Z,101073.02
2022-08-31T02:06:43.356Z,101067.80
2022-08-31T02:11:50.434Z,101068.42
2022-08-31T02:16:57.106Z,101069.15
2022-08-31T02:22:03.035Z,101068.64
2022-08-31T02:27:09.045Z,101067.73
2022-08-31T02:32:19.793Z,101066.48
2022-08-31T02:37:26.370Z,101066.80
2022-08-31T02:42:52.743Z,101063.48
2022-08-31T02:47:59.787Z,101066.50
2022-08-31T02:53:11.585Z,101065.94
2022-08-31T02:58:23.305Z,101067.79
2022-08-31T03:03:30.136Z,101067.29
2022-08-31T03:08:36.061Z,101069.45
2022-08-31T03:13:42.820Z,101068.06
2022-08-31T03:18:48.767Z,101069.42
2022-08-31T03:23:54.817Z,101072.85
2022-08-31T03:29:00.831Z,101078.06
2022-08-31T03:34:16.203Z,101076.16
2022-08-31T03:39:22.487Z,101079.40
2022-08-31T03:44:28.553Z,101081.96
2022-08-31T03:49:34.453Z,101086.77
2022-08-31T03:54:58.598Z,101089.08
2022-08-31T04:00:07.083Z,101091.82
2022-08-31T04:05:21.744Z,101090.36
2022-08-31T04:10:48.177Z,101089.77
2022-08-31T04:16:14.730Z,101090.16
2022-08-31T04:21:31.208Z,101091.09
2022-08-31T04:26:40.660Z,101096.38
2022-08-31T04:31:47.266Z,101101.96
2022-08-31T04:36:53.379Z,101112.91
2022-08-31T04:41:59.281Z,101123.78
2022-08-31T04:47:08.274Z,101128.83
2022-08-31T04:52:14.211Z,101134.77
2022-08-31T04:57:20.207Z,101139.64
2022-08-31T05:02:26.156Z,101138.30
2022-08-31T05:07:39.024Z,101139.36
2022-08-31T05:12:46.138Z,101138.04
2022-08-31T05:17:52.418Z,101135.40
2022-08-31T05:22:59.215Z,101132.98
2022-08-31T05:28:05.370Z,101134.31
2022-08-31T05:33:11.505Z,101132.23
2022-08-31T05:38:17.683Z,101141.61
2022-08-31T05:43:24.586Z,101147.19
2022-08-31T05:48:33.624Z,101148.81
2022-08-31T05:53:40.747Z,101157.19
2022-08-31T05:58:47.858Z,101159.56
2022-08-31T06:03:54.274Z,101161.69
2022-08-31T06:09:00.921Z,101167.61
2022-08-31T06:14:09.573Z,101176.10
2022-08-31T06:19:17.039Z,101179.30
2022-08-31T06:24:25.794Z,101183.52
2022-08-31T06:29:31.957Z,101182.24
2022-08-31T06:34:40.108Z,101187.58
2022-08-31T06:39:47.828Z,101188.90
2022-08-31T06:45:13.739Z,101185.66
2022-08-31T06:50:22.102Z,101180.80
2022-08-31T06:55:28.773Z,101177.90
2022-08-31T07:00:53.970Z,101183.86
2022-08-31T07:06:25.889Z,101181.23
2022-08-31T07:11:34.417Z,101179.85
2022-08-31T07:16:39.323Z,101184.23
2022-08-31T07:21:47.357Z,101181.87
2022-08-31T07:27:00.143Z,101189.16
2022-08-31T07:32:13.729Z,101189.40
2022-08-31T07:37:39.389Z,101186.24
2022-08-31T07:42:47.202Z,101190.20
2022-08-31T07:47:55.080Z,101192.81
2022-08-31T07:53:08.517Z,101187.33
2022-08-31T07:58:31.363Z,101183.55
2022-08-31T08:03:41.041Z,101187.75
2022-08-31T08:09:26.607Z,101188.30
2022-08-31T08:14:39.436Z,101192.98
2022-08-31T08:19:54.300Z,101196.38
2022-08-31T08:25:01.140Z,101206.42
2022-08-31T08:30:19.219Z,101216.20
2022-08-31T08:35:32.201Z,101219.04
2022-08-31T08:40:44.404Z,101213.30
2022-08-31T08:45:55.366Z,101214.67
2022-08-31T08:51:09.619Z,101205.34
2022-08-31T08:56:33.418Z,101207.94
2022-08-31T09:01:46.082Z,101207.15
2022-08-31T09:06:59.793Z,101211.95
2022-08-31T09:12:22.597Z,101208.98
2022-08-31T09:17:46.210Z,101206.94
2022-08-31T09:22:55.737Z,101208.11
2022-08-31T09:28:04.077Z,101213.19
2022-08-31T09:33:19.681Z,101211.66
2022-08-31T09:38:31.295Z,101206.05
2022-08-31T09:43:38.125Z,101201.09
2022-08-31T09:48:51.979Z,101200.41
2022-08-31T09:54:25.937Z,101191.85
2022-08-31T09:59:37.580Z,101189.87
2022-08-31T10:04:54.729Z,101194.70
2022-08-31T10:10:04.667Z,101187.66
2022-08-31T10:15:17.946Z,101189.55
2022-08-31T10:20:30.860Z,101185.40
2022-08-31T10:25:42.781Z,101183.27
2022-08-31T10:30:58.249Z,101183.52
2022-08-31T10:36:08.092Z,101178.45
2022-08-31T10:41:18.999Z,101180.45
2022-08-31T10:46:25.291Z,101185.93
2022-08-31T10:51:41.086Z,101185.25
2022-08-31T10:57:00.783Z,101181.05
2022-08-31T11:02:26.890Z,101170.80
2022-08-31T11:07:47.737Z,101167.10
2022-08-31T11:13:00.884Z,101154.38
2022-08-31T11:18:40.340Z,101154.10
2022-08-31T11:24:03.970Z,101157.01
2022-08-31T11:29:21.613Z,101161.33
2022-08-31T11:34:34.677Z,101158.69
2022-08-31T11:39:45.523Z,101153.39
2022-08-31T11:45:07.642Z,101141.05
2022-08-31T11:50:55.453Z,101136.73
2022-08-31T11:56:06.593Z,101139.75
2022-08-31T12:01:34.239Z,101132.84
2022-08-31T12:07:11.342Z,101129.79
2022-08-31T12:12:28.046Z,101117.52
2022-08-31T12:17:44.406Z,101118.88
2022-08-31T12:23:40.699Z,101109.88
2022-08-31T12:29:10.078Z,101101.56
2022-08-31T12:34:19.769Z,101096.41
2022-08-31T12:39:32.117Z,101090.76
2022-08-31T12:44:47.652Z,101085.33
2022-08-31T12:50:05.891Z,101080.52
2022-08-31T12:55:28.873Z,101075.65
2022-08-31T13:00:39.446Z,101068.78
2022-08-31T13:06:01.791Z,101065.48
2022-08-31T13:11:24.413Z,101061.35
2022-08-31T13:16:31.619Z,101053.59
2022-08-31T13:21:38.341Z,101051.52
2022-08-31T13:26:45.504Z,101046.95
2022-08-31T13:31:52.674Z,101041.67
2022-08-31T13:37:00.075Z,101043.46
2022-08-31T13:42:08.417Z,101044.58
2022-08-31T13:47:20.674Z,101050.75
2022-08-31T13:52:29.111Z,101055.39
2022-08-31T13:57:38.305Z,101049.37
2022-08-31T14:02:44.994Z,101046.23
2022-08-31T14:07:58.066Z,101047.02
2022-08-31T14:13:18.426Z,101045.41
2022-08-31T14:18:27.962Z,101050.92
2022-08-31T14:23:36.019Z,101053.52
2022-08-31T14:28:43.261Z,101057.67
2022-08-31T14:33:56.015Z,101055.54
2022-08-31T14:39:02.127Z,101058.03
2022-08-31T14:44:09.460Z,101058.58
2022-08-31T14:49:18.756Z,101056.88
2022-08-31T14:54:24.808Z,101053.42
2022-08-31T14:59:30.944Z,101050.27
2022-08-31T15:04:45.407Z,101049.02
2022-08-31T15:09:51.980Z,101041.98
2022-08-31T15:15:00.725Z,101050.11
2022-08-31T15:20:11.371Z,101050.52
2022-08-31T15:25:18.514Z,101049.12
2022-08-31T15:30:24.526Z,101050.65
2022-08-31T15:35:31.923Z,101045.39
2022-08-31T15:40:39.217Z,101045.89
2022-08-31T15:46:57.805Z,101051.60
2022-08-31T15:52:12.854Z,101044.80
2022-08-31T15:57:18.989Z,101054.31
2022-08-31T16:02:24.842Z,101064.70
2022-08-31T16:07:30.982Z,101066.31
2022-08-31T16:12:36.898Z,101067.08
2022-08-31T16:17:43.142Z,101067.97
2022-08-31T16:22:48.908Z,101066.31
2022-08-31T16:27:57.823Z,101059.55
2022-08-31T16:33:03.880Z,101055.83
2022-08-31T16:38:09.824Z,101056.00
2022-08-31T16:43:15.973Z,101054.13
2022-08-31T16:48:40.446Z,101053.48
2022-08-31T16:53:47.810Z,101052.27
2022-08-31T16:58:55.176Z,101056.66
2022-08-31T17:04:04.765Z,101059.72
2022-08-31T17:09:16.153Z,101058.16
2022-08-31T17:14:26.352Z,101062.17
2022-08-31T17:19:34.800Z,101065.44
2022-08-31T17:24:46.048Z,101061.55
2022-08-31T17:29:53.900Z,101069.53
2022-08-31T17:35:00.199Z,101073.48
2022-08-31T17:40:09.484Z,101078.89
2022-08-31T17:45:15.815Z,101085.31
2022-08-31T17:50:21.883Z,101082.36
2022-08-31T17:55:29.279Z,101082.40
2022-08-31T18:00:35.967Z,101085.35
2022-08-31T18:05:45.913Z,101090.21
2022-08-31T18:10:53.542Z,101090.40
2022-08-31T18:16:01.041Z,101089.32
2022-08-31T18:21:08.884Z,101094.13
2022-08-31T18:26:18.062Z,101100.40
2022-08-31T18:31:30.769Z,101103.47
2022-08-31T18:36:38.903Z,101110.39
2022-08-31T18:42:08.333Z,101110.47
2022-08-31T18:47:15.811Z,101105.36
2022-08-31T18:52:22.827Z,101106.76
2022-08-31T18:57:29.391Z,101108.84
2022-08-31T19:02:40.424Z,101111.23
2022-08-31T19:07:46.490Z,101112.23
2022-08-31T19:12:52.342Z,101111.19
2022-08-31T19:17:58.213Z,101103.60
2022-08-31T19:23:05.333Z,101101.52
2022-08-31T19:28:11.691Z,101100.21
2022-08-31T19:33:18.897Z,101102.42
2022-08-31T19:38:24.966Z,101101.36
2022-08-31T19:43:53.645Z,101101.22
2022-08-31T19:49:00.309Z,101102.30
2022-08-31T19:54:09.092Z,101104.30
2022-08-31T19:59:21.135Z,101099.01
2022-08-31T20:04:29.797Z,101101.04
2022-08-31T20:09:36.569Z,101106.15
2022-08-31T20:14:42.431Z,101103.23
2022-08-31T20:19:49.598Z,101105.41
2022-08-31T20:24:55.642Z,101107.63
2022-08-31T20:30:02.039Z,101104.39
2022-08-31T20:35:09.384Z,101108.77
2022-08-31T20:40:17.233Z,101116.40
2022-08-31T20:45:23.359Z,101124.42
2022-08-31T20:50:29.816Z,101128.20
2022-08-31T20:55:35.779Z,101126.88
2022-08-31T21:00:47.454Z,101126.36
2022-08-31T21:05:53.255Z,101125.02
2022-08-31T21:10:59.121Z,101123.85
2022-08-31T21:16:05.563Z,101130.41
2022-08-31T21:21:17.611Z,101130.36
2022-08-31T21:26:25.994Z,101129.86
2022-08-31T21:31:31.860Z,101132.46
2022-08-31T21:36:41.150Z,101131.14
2022-08-31T21:41:48.781Z,101139.05
2022-08-31T21:46:54.658Z,101141.84
2022-08-31T21:52:00.586Z,101144.23
2022-08-31T21:57:06.943Z,101148.34
2022-08-31T22:02:14.766Z,101145.08
2022-08-31T22:07:20.956Z,101146.94
2022-08-31T22:12:26.818Z,101142.98
2022-08-31T22:17:59.352Z,101143.16
2022-08-31T22:22:59.155Z,101140.48
2022-08-31T22:28:06.449Z,101146.61
2022-08-31T22:33:12.140Z,101149.14
2022-08-31T22:38:19.129Z,101149.20
2022-08-31T22:43:25.389Z,101143.75
2022-08-31T22:48:31.301Z,101141.91
2022-08-31T22:53:37.242Z,101136.25
2022-08-31T22:58:43.760Z,101133.30
2022-08-31T23:03:51.219Z,101132.13
2022-08-31T23:08:58.253Z,101133.86
2022-08-31T23:14:07.616Z,101138.80
2022-08-31T23:19:16.536Z,101138.19
2022-08-31T23:24:26.837Z,101135.89
2022-08-31T23:29:35.219Z,101140.50
2022-08-31T23:34:41.844Z,101145.28
2022-08-31T23:39:48.194Z,101142.52
2022-08-31T23:44:54.437Z,101138.31
2022-08-31T23:50:02.858Z,101133.55
2022-08-31T23:55:11.931Z,101133.08
